Time;durP1;ratioP1;P1;durP2;ratioP2;P2;SDS_P1;SDS_P2;PMS_P1;PMS_P2;Temp;Humidity;BMP_temperature;BMP_pressure;BME280_temperature;BME280_humidity;BME280_pressure;Samples;Min_cycle;Max_cycle;Signal;HPM_P1;HPM_P2
2022/05/13 00:01:27;;;;;;;13.57;4.03;;;;;;;11.78;65.64;99984.97;4228268;28;25298;-71
2022/05/13 00:03:54;;;;;;;12.17;3.83;;;;;;;11.74;65.70;99991.59;4223556;28;20301;-70
2022/05/13 00:06:21;;;;;;;13.53;3.93;;;;;;;11.71;65.88;99991.13;4221490;28;20231;-70
2022/05/13 00:08:48;;;;;;;12.50;3.97;;;;;;;11.61;65.67;99985.91;4225711;28;20243;-72
2022/05/13 00:11:14;;;;;;;13.13;3.53;;;;;;;11.64;65.97;99996.25;4239096;28;21559;-71
2022/05/13 00:13:41;;;;;;;12.30;3.83;;;;;;;11.60;65.91;99986.91;4229510;28;20275;-71
2022/05/13 00:16:08;;;;;;;14.63;3.83;;;;;;;11.68;65.72;99986.91;4212506;28;21204;-70
2022/05/13 00:18:34;;;;;;;10.00;3.53;;;;;;;11.83;65.62;99985.28;4214590;28;20360;-71
2022/05/13 00:21:01;;;;;;;14.63;3.77;;;;;;;11.92;65.24;99985.34;4230893;28;20328;-71
2022/05/13 00:23:28;;;;;;;12.27;3.87;;;;;;;11.90;64.12;99984.69;4227922;28;20247;-70
2022/05/13 00:25:58;;;;;;;14.13;3.63;;;;;;;11.83;65.44;99990.63;4225113;28;21345;-70
2022/05/13 00:28:25;;;;;;;12.03;3.50;;;;;;;11.83;64.67;99990.63;4224140;28;20235;-70
2022/05/13 00:30:51;;;;;;;11.63;3.83;;;;;;;11.91;64.94;99986.34;4222464;28;20708;-70
2022/05/13 00:33:19;;;;;;;9.80;4.00;;;;;;;11.87;65.21;99985.84;4232802;28;20231;-72
2022/05/13 00:35:47;;;;;;;14.47;3.80;;;;;;;11.79;66.01;99991.13;4225453;28;20242;-70
2022/05/13 00:38:14;;;;;;;10.90;3.90;;;;;;;11.87;65.35;99990.28;4225653;28;20228;-71
2022/05/13 00:40:41;;;;;;;11.87;3.40;;;;;;;11.83;65.20;99981.81;4224738;28;20255;-70
2022/05/13 00:43:10;;;;;;;9.57;3.23;;;;;;;11.77;65.66;99983.28;4215976;28;20246;-69
2022/05/13 00:45:37;;;;;;;8.43;3.30;;;;;;;11.80;65.41;99985.63;4215947;28;20235;-69
2022/05/13 00:48:04;;;;;;;11.93;3.17;;;;;;;11.77;65.17;99991.28;4208531;28;20231;-71
2022/05/13 00:50:34;;;;;;;8.40;3.37;;;;;;;11.76;64.94;99984.28;4221032;28;21666;-70
2022/05/13 00:53:02;;;;;;;12.37;3.77;;;;;;;11.68;65.84;99978.91;4242213;28;20219;-69
2022/05/13 00:55:36;;;;;;;7.03;3.43;;;;;;;11.75;65.67;99993.28;4227075;28;20223;-69
2022/05/13 00:58:06;;;;;;;9.13;3.00;;;;;;;11.81;65.25;99989.94;4227449;28;20232;-70
2022/05/13 01:00:33;;;;;;;9.87;3.50;;;;;;;11.76;65.80;99986.94;4217227;28;21675;-71
2022/05/13 01:03:00;;;;;;;7.23;3.20;;;;;;;11.64;66.18;99990.94;4217343;28;20235;-69
2022/05/13 01:05:28;;;;;;;17.43;3.70;;;;;;;11.72;66.30;99990.94;4238233;28;20227;-73
2022/05/13 01:07:54;;;;;;;9.43;3.20;;;;;;;11.65;66.47;99995.25;4217769;28;20243;-70
2022/05/13 01:10:23;;;;;;;7.77;3.03;;;;;;;11.72;66.65;99996.25;4223209;28;23805;-70
2022/05/13 01:12:54;;;;;;;8.87;3.83;;;;;;;11.78;65.52;99998.28;4224406;28;20507;-69
2022/05/13 01:15:25;;;;;;;8.93;3.33;;;;;;;11.71;66.17;99991.13;4225401;28;22674;-70
2022/05/13 01:18:05;;;;;;;8.17;3.67;;;;;;;11.71;66.65;99996.44;4222025;28;20233;-72
2022/05/13 01:20:48;;;;;;;8.67;2.90;;;;;;;11.65;65.93;99989.91;4217546;28;21596;-70
2022/05/13 01:23:19;;;;;;;12.33;3.80;;;;;;;11.59;66.45;99999.41;4220053;28;20668;-71
2022/05/13 01:25:48;;;;;;;10.27;3.60;;;;;;;11.50;66.92;100005.72;4221599;28;20238;-70
2022/05/13 01:28:18;;;;;;;13.30;3.37;;;;;;;11.46;66.87;100008.84;4221172;28;20235;-70
2022/05/13 01:30:53;;;;;;;11.90;3.20;;;;;;;11.47;66.54;100008.72;4221699;28;21326;-70
2022/05/13 01:33:21;;;;;;;14.77;3.70;;;;;;;11.50;67.18;100011.03;4211760;28;20247;-70
2022/05/13 01:35:52;;;;;;;6.73;3.20;;;;;;;11.46;68.10;100008.84;4221350;28;22808;-71
2022/05/13 01:38:20;;;;;;;7.50;3.37;;;;;;;11.46;68.07;100003.53;4225501;28;20234;-70
2022/05/13 01:40:47;;;;;;;11.17;3.00;;;;;;;11.44;67.38;100006.34;4225472;28;21462;-69
2022/05/13 01:43:13;;;;;;;13.53;3.50;;;;;;;11.22;68.54;100007.78;4204630;28;20661;-70
2022/05/13 01:45:40;;;;;;;6.17;3.40;;;;;;;11.32;67.78;100003.13;4220696;28;20621;-69
2022/05/13 01:48:07;;;;;;;6.83;2.90;;;;;;;11.55;66.99;99998.06;4222755;28;21357;-73
2022/05/13 01:50:35;;;;;;;13.20;3.83;;;;;;;11.58;66.40;100003.06;4208286;28;20295;-70
2022/05/13 01:53:03;;;;;;;8.70;3.47;;;;;;;11.38;66.75;100004.34;4231565;28;20289;-71
2022/05/13 01:55:30;;;;;;;9.73;3.53;;;;;;;11.33;67.68;100001.31;4228518;28;20671;-71
2022/05/13 01:57:56;;;;;;;5.83;2.90;;;;;;;11.34;67.58;100000.31;4214403;28;20365;-71
2022/05/13 02:00:23;;;;;;;8.80;3.20;;;;;;;11.51;67.67;100006.53;4224349;28;20242;-71
2022/05/13 02:05:35;;;;;;;15.37;3.70;;;;;;;11.50;67.06;99999.56;4227006;28;20212;-71
2022/05/13 02:08:02;;;;;;;7.97;2.80;;;;;;;11.51;66.78;99991.38;4218981;28;21140;-70
2022/05/13 02:10:29;;;;;;;9.87;3.20;;;;;;;11.65;65.93;99989.09;4220409;28;20238;-70
2022/05/13 02:12:56;;;;;;;10.30;3.20;;;;;;;11.59;65.81;99993.25;4225516;28;20228;-71
2022/05/13 02:15:23;;;;;;;10.33;3.10;;;;;;;11.56;65.77;99988.22;4227652;28;21235;-69
2022/05/13 02:17:49;;;;;;;8.07;3.33;;;;;;;11.49;65.24;99990.69;4225461;28;23785;-71
2022/05/13 02:20:16;;;;;;;4.67;2.50;;;;;;;11.61;65.78;99994.75;4223592;28;22955;-71
2022/05/13 02:22:42;;;;;;;11.17;3.43;;;;;;;11.58;65.92;99994.22;4227554;28;20231;-71
2022/05/13 02:25:09;;;;;;;14.60;4.03;;;;;;;11.44;66.76;100000.19;4232955;28;20232;-71
2022/05/13 02:27:36;;;;;;;6.90;2.80;;;;;;;11.42;67.24;99997.66;4207461;28;20239;-71
2022/05/13 02:30:04;;;;;;;7.60;3.80;;;;;;;11.39;67.22;99998.00;4252926;28;20224;-71
2022/05/13 02:32:30;;;;;;;7.43;2.80;;;;;;;11.47;66.94;99987.41;4229098;28;20242;-71
2022/05/13 02:34:57;;;;;;;10.70;3.13;;;;;;;11.44;66.42;99986.88;4220873;28;20234;-70
2022/05/13 02:37:23;;;;;;;8.57;3.20;;;;;;;11.50;66.39;99979.06;4219291;28;21825;-73
2022/05/13 02:39:50;;;;;;;8.63;2.90;;;;;;;11.52;65.75;99986.88;4230935;28;20236;-71
2022/05/13 02:42:16;;;;;;;12.73;3.07;;;;;;;11.61;64.21;99978.78;4223872;28;21363;-71
2022/05/13 02:44:44;;;;;;;10.57;3.77;;;;;;;11.64;64.65;99974.94;4212979;28;20227;-73
2022/05/13 02:47:10;;;;;;;10.80;3.27;;;;;;;11.73;63.98;99976.63;4224612;28;20223;-73
2022/05/13 02:49:38;;;;;;;10.63;3.30;;;;;;;11.75;64.00;99981.78;4227947;28;20238;-71
2022/05/13 02:52:05;;;;;;;9.27;3.00;;;;;;;11.70;63.84;99976.94;4223373;28;20318;-71
2022/05/13 02:54:31;;;;;;;12.27;3.03;;;;;;;11.76;63.23;99978.13;4229355;28;20241;-72
2022/05/13 02:56:58;;;;;;;14.17;3.57;;;;;;;11.70;63.73;99976.94;4225843;28;20239;-71
2022/05/13 02:59:25;;;;;;;11.77;2.93;;;;;;;11.75;63.80;99971.09;4225817;28;22761;-71
2022/05/13 03:01:54;;;;;;;12.23;3.60;;;;;;;11.69;63.71;99963.78;4225607;28;21780;-73
2022/05/13 03:04:22;;;;;;;10.63;3.10;;;;;;;11.72;63.86;99972.28;4251434;28;20226;-71
2022/05/13 03:06:51;;;;;;;11.33;3.20;;;;;;;11.65;64.62;99973.94;4226915;28;20750;-72
2022/05/13 03:09:17;;;;;;;7.57;3.10;;;;;;;11.51;64.20;99964.72;4251171;28;20225;-71
2022/05/13 03:11:44;;;;;;;10.53;3.30;;;;;;;11.60;64.79;99968.25;4217598;28;25446;-71
2022/05/13 03:14:10;;;;;;;10.13;3.33;;;;;;;11.55;64.18;99975.91;4252228;28;22998;-71
2022/05/13 03:16:37;;;;;;;16.57;3.30;;;;;;;11.40;65.37;99975.69;4224485;28;20235;-69
2022/05/13 03:19:04;;;;;;;11.47;3.60;;;;;;;11.35;65.06;99972.69;4245168;28;20310;-72
2022/05/13 03:21:31;;;;;;;11.03;3.23;;;;;;;11.29;66.01;99976.00;4245472;28;21624;-71
2022/05/13 03:23:58;;;;;;;10.87;2.87;;;;;;;11.46;64.99;99976.88;4220080;28;22760;-70
2022/05/13 03:26:24;;;;;;;10.83;2.77;;;;;;;11.32;66.23;99978.34;4220178;28;20222;-71
2022/05/13 03:28:51;;;;;;;6.70;2.90;;;;;;;11.29;65.85;99973.34;4256496;28;20230;-71
2022/05/13 03:31:17;;;;;;;9.57;3.47;;;;;;;11.25;66.44;99977.31;4234288;28;20293;-71
2022/05/13 03:33:44;;;;;;;13.63;3.77;;;;;;;11.24;66.54;99970.31;4243019;28;20246;-71
2022/05/13 03:36:12;;;;;;;10.90;3.37;;;;;;;11.26;67.02;99971.84;4236414;28;20240;-73
2022/05/13 03:38:40;;;;;;;9.30;3.20;;;;;;;11.25;66.35;99969.31;4226998;28;20236;-71
2022/05/13 03:41:08;;;;;;;15.67;3.17;;;;;;;11.36;66.13;99974.38;4241928;28;21601;-71
2022/05/13 03:43:34;;;;;;;8.80;3.17;;;;;;;11.45;65.23;99965.41;4225282;28;21987;-72
2022/05/13 03:46:01;;;;;;;8.67;3.47;;;;;;;11.52;65.00;99971.75;4251210;28;21254;-73
2022/05/13 03:48:27;;;;;;;9.93;3.40;;;;;;;11.62;64.45;99971.59;4233180;28;23644;-69
2022/05/13 03:50:54;;;;;;;13.20;3.77;;;;;;;11.61;64.14;99972.56;4215962;28;21973;-70
2022/05/13 03:53:21;;;;;;;9.63;2.90;;;;;;;11.71;63.51;99973.28;4242738;28;20973;-73
2022/05/13 03:55:47;;;;;;;8.77;3.33;;;;;;;11.66;63.77;99982.75;4228476;28;20234;-70
2022/05/13 03:58:14;;;;;;;10.83;3.23;;;;;;;11.87;62.74;99983.19;4228305;28;20240;-70
2022/05/13 04:00:41;;;;;;;8.23;2.90;;;;;;;11.72;64.04;99972.28;4226826;28;20293;-70
2022/05/13 04:03:08;;;;;;;11.37;4.07;;;;;;;11.52;64.89;99976.22;4277965;28;21056;-71
2022/05/13 04:11:06;;;;;;;8.87;3.27;;;;;;;11.78;63.45;99968.97;4273754;28;20227;-68
2022/05/13 04:16:18;;;;;;;9.17;3.67;;;;;;;12.19;60.90;99969.00;4255727;28;20229;-71
2022/05/13 04:18:47;;;;;;;8.40;3.17;;;;;;;12.30;60.54;99969.69;4238716;28;20224;-70
2022/05/13 04:21:17;;;;;;;11.67;3.30;;;;;;;12.36;60.19;99974.34;4251003;28;21605;-68
2022/05/13 04:23:47;;;;;;;8.07;2.67;;;;;;;12.50;59.36;99975.50;4247243;28;20292;-74
2022/05/13 04:26:14;;;;;;;11.87;3.00;;;;;;;12.53;59.58;99978.69;4263496;28;20254;-69
2022/05/13 04:28:42;;;;;;;8.60;3.33;;;;;;;12.59;59.31;99979.81;4262802;28;20365;-68
2022/05/13 04:31:10;;;;;;;10.07;2.90;;;;;;;12.71;58.59;99978.47;4237789;28;20223;-73
2022/05/13 04:33:38;;;;;;;14.27;3.17;;;;;;;12.65;58.46;99982.66;4241411;28;20322;-72
2022/05/13 04:36:05;;;;;;;12.97;3.40;;;;;;;12.73;58.25;99975.63;4244253;28;20251;-69
2022/05/13 04:38:32;;;;;;;8.37;2.90;;;;;;;12.86;58.28;99978.63;4222353;28;20432;-70
2022/05/13 04:42:49;;;;;;;7.60;2.67;;;;;;;12.95;57.83;99980.25;4250367;28;22038;-70
2022/05/13 04:43:45;;;;;;;9.13;3.03;;;;;;;13.05;56.52;99975.53;4222554;28;20243;-73
2022/05/13 04:46:12;;;;;;;15.43;3.07;;;;;;;13.08;56.65;99966.34;4235440;28;20231;-69
2022/05/13 04:48:39;;;;;;;10.10;2.77;;;;;;;13.18;56.04;99969.66;4230029;28;20230;-69
2022/05/13 04:51:05;;;;;;;10.37;2.80;;;;;;;13.23;57.27;99971.81;4256156;28;20265;-68
2022/05/13 04:53:35;;;;;;;10.40;2.90;;;;;;;13.34;55.59;99979.44;4253602;28;20235;-67
2022/05/13 04:56:03;;;;;;;10.07;2.87;;;;;;;13.31;56.21;99979.81;4247105;28;20363;-70
2022/05/13 04:58:29;;;;;;;7.87;2.90;;;;;;;13.34;55.22;99975.97;4244318;28;23865;-69
2022/05/13 05:00:57;;;;;;;11.90;3.20;;;;;;;13.39;55.45;99976.25;4240115;28;20258;-68
2022/05/13 05:03:27;;;;;;;13.63;3.70;;;;;;;13.45;54.94;99980.91;4221694;28;26406;-70
2022/05/13 05:05:59;;;;;;;11.87;3.23;;;;;;;13.36;56.19;99987.31;4233917;28;25565;-67
2022/05/13 05:08:27;;;;;;;13.07;3.40;;;;;;;13.22;56.80;99978.97;4268369;28;23522;-68
2022/05/13 05:10:53;;;;;;;9.33;2.93;;;;;;;13.35;55.25;99977.63;4255682;28;22750;-71
2022/05/13 05:13:25;;;;;;;4.43;2.70;;;;;;;13.61;54.76;99980.84;4247029;28;20231;-69
2022/05/13 05:15:52;;;;;;;14.60;3.40;;;;;;;13.87;54.08;99983.16;4235938;28;20264;-73
2022/05/13 05:18:18;;;;;;;14.00;4.13;;;;;;;13.79;55.10;99972.53;4240259;28;20283;-71
2022/05/13 05:20:45;;;;;;;9.20;3.27;;;;;;;13.64;56.72;99971.63;4237692;28;20559;-69
2022/05/13 05:23:20;;;;;;;6.03;3.10;;;;;;;13.62;56.80;99966.44;4247552;28;20239;-72
2022/05/13 05:25:47;;;;;;;8.30;2.60;;;;;;;13.66;57.01;99966.94;4232557;28;20431;-72
2022/05/13 05:28:14;;;;;;;8.83;2.67;;;;;;;13.85;57.42;99973.66;4253983;28;22127;-70
2022/05/13 05:30:41;;;;;;;8.43;2.40;;;;;;;14.19;56.55;99972.41;4251270;28;20247;-70
2022/05/13 05:33:08;;;;;;;11.17;2.60;;;;;;;14.23;54.79;99971.84;4254571;28;20940;-68
2022/05/13 05:35:35;;;;;;;7.87;2.23;;;;;;;14.49;52.13;99970.63;4227586;28;22911;-67
2022/05/13 05:38:02;;;;;;;13.70;2.40;;;;;;;14.64;52.64;99970.69;4266164;28;20726;-72
2022/05/13 05:40:28;;;;;;;8.57;2.50;;;;;;;15.00;52.22;99981.50;4231978;28;21267;-70
2022/05/13 05:42:56;;;;;;;8.40;2.77;;;;;;;15.67;50.74;99982.38;4267323;28;20252;-72
2022/05/13 05:45:23;;;;;;;10.43;2.40;;;;;;;16.61;48.03;99987.59;4251229;28;22963;-69
2022/05/13 05:47:50;;;;;;;10.70;2.30;;;;;;;17.68;44.82;100000.63;4253144;28;21010;-69
2022/05/13 05:50:19;;;;;;;12.63;2.50;;;;;;;18.51;41.74;100003.03;4256619;28;20232;-70
2022/05/13 05:52:46;;;;;;;5.87;2.20;;;;;;;18.88;39.67;100008.03;4258218;28;22524;-69
2022/05/13 05:58:03;;;;;;;10.93;2.00;;;;;;;20.05;37.41;100021.53;4264012;28;23013;-71
2022/05/13 06:00:31;;;;;;;8.27;2.17;;;;;;;20.83;35.55;100018.44;4242693;28;20472;-70
2022/05/13 06:02:58;;;;;;;11.87;2.23;;;;;;;22.07;32.88;100031.78;4249283;28;20327;-71
2022/05/13 06:05:26;;;;;;;7.33;1.53;;;;;;;21.60;32.80;100037.00;4265987;28;20334;-71
2022/05/13 06:07:58;;;;;;;3.77;1.53;;;;;;;21.68;32.84;100031.25;4241677;28;20958;-72
2022/05/13 06:10:26;;;;;;;7.93;1.63;;;;;;;21.83;32.63;100033.59;4244216;28;20231;-70
2022/05/13 06:12:53;;;;;;;6.40;1.67;;;;;;;22.65;31.40;100036.56;4252731;28;23067;-69
2022/05/13 06:15:24;;;;;;;10.30;1.80;;;;;;;23.49;29.83;100041.72;4274117;28;20238;-67
2022/05/13 06:17:52;;;;;;;11.07;1.83;;;;;;;24.47;27.24;100047.16;4306652;28;21204;-68
2022/05/13 06:20:25;;;;;;;9.63;2.00;;;;;;;23.97;27.68;100045.94;4278513;28;22588;-77
2022/05/13 06:22:52;;;;;;;12.93;1.90;;;;;;;23.67;27.72;100051.59;4262804;28;21826;-70
2022/05/13 06:25:22;;;;;;;12.93;2.10;;;;;;;24.08;26.74;100046.16;4252947;28;20226;-68
2022/05/13 06:27:50;;;;;;;12.90;1.90;;;;;;;23.67;27.84;100042.59;4221502;28;20237;-71
2022/05/13 06:30:30;;;;;;;7.53;1.43;;;;;;;24.12;26.75;100041.88;4271826;28;23093;-69
2022/05/13 06:32:57;;;;;;;7.03;1.17;;;;;;;23.68;27.46;100044.28;4279844;28;21037;-67
2022/05/13 06:35:25;;;;;;;11.30;1.60;;;;;;;25.32;24.50;100055.28;4242864;28;21773;-68
2022/05/13 06:37:52;;;;;;;10.97;1.60;;;;;;;26.41;23.02;100062.53;4278949;28;20243;-69
2022/05/13 06:40:19;;;;;;;6.07;1.33;;;;;;;26.76;22.03;100058.47;4256105;28;20237;-66
2022/05/13 06:42:46;;;;;;;7.30;1.50;;;;;;;26.35;22.07;100052.66;4231782;28;20238;-68
2022/05/13 06:45:13;;;;;;;7.60;1.20;;;;;;;26.27;22.34;100055.84;4266659;28;21337;-66
2022/05/13 06:47:39;;;;;;;7.03;1.07;;;;;;;25.67;23.58;100047.53;4251482;28;20242;-68
2022/05/13 06:50:08;;;;;;;3.90;1.20;;;;;;;26.41;22.95;100046.16;4260050;28;23465;-68
2022/05/13 06:52:35;;;;;;;5.87;1.00;;;;;;;25.94;23.09;100040.50;4238363;28;21583;-65
2022/05/13 06:55:08;;;;;;;5.87;1.10;;;;;;;26.29;22.67;100043.59;4246117;28;20277;-69
2022/05/13 06:57:37;;;;;;;2.58;1.15;;;;;;;26.58;22.33;100043.34;4251094;28;20304;-69
2022/05/13 07:00:06;;;;;;;8.27;1.37;;;;;;;28.02;21.60;100044.13;4263246;28;20308;-57
2022/05/13 07:02:34;;;;;;;8.57;1.00;;;;;;;28.29;20.08;100054.84;4279902;28;22524;-69
2022/05/13 07:05:00;;;;;;;6.53;1.33;;;;;;;27.12;22.52;100043.16;4249490;28;20272;-52
2022/05/13 07:07:28;;;;;;;3.35;1.10;;;;;;;25.79;23.51;100027.50;4247409;28;25353;-66
2022/05/13 07:09:58;;;;;;;11.80;1.30;;;;;;;25.35;24.08;100027.53;4278548;28;22053;-66
2022/05/13 07:12:24;;;;;;;5.77;1.10;;;;;;;25.22;24.67;100012.38;4277840;28;21245;-66
2022/05/13 07:14:53;;;;;;;4.17;1.10;;;;;;;26.84;22.49;100030.69;4285312;28;20268;-66
2022/05/13 07:17:21;;;;;;;3.03;0.67;;;;;;;27.12;21.54;100024.03;4273774;28;20227;-68
2022/05/13 07:19:48;;;;;;;3.67;1.27;;;;;;;28.40;20.41;100026.38;4244274;28;20296;-65
2022/05/13 07:22:15;;;;;;;4.40;1.20;;;;;;;26.21;22.45;100029.59;4242244;28;21758;-72
2022/05/13 07:24:41;;;;;;;9.97;1.10;;;;;;;25.75;23.12;100010.81;4242688;28;20251;-65
2022/05/13 07:27:08;;;;;;;2.20;0.80;;;;;;;25.46;22.18;100016.50;4254501;28;20234;-69
2022/05/13 07:29:35;;;;;;;6.53;1.10;;;;;;;24.95;24.08;100001.34;4258043;28;20242;-67
2022/05/13 07:32:02;;;;;;;3.57;1.10;;;;;;;24.91;23.22;99995.59;4252814;28;21716;-65
2022/05/13 07:34:28;;;;;;;6.13;1.30;;;;;;;23.87;25.19;99996.03;4261475;28;23520;-67
2022/05/13 07:36:56;;;;;;;5.60;1.23;;;;;;;22.98;27.00;99994.44;4262058;28;20265;-67
2022/05/13 07:42:10;;;;;;;2.47;0.90;;;;;;;22.12;26.84;99986.69;4335142;28;21206;-65
2022/05/13 07:44:37;;;;;;;2.97;0.93;;;;;;;21.53;27.47;99976.69;4298410;28;20231;-66
2022/05/13 07:47:08;;;;;;;3.23;0.80;;;;;;;21.98;27.19;99996.06;4324284;28;20230;-65
2022/05/13 07:49:37;;;;;;;2.97;0.87;;;;;;;21.50;28.40;99986.91;4279200;28;20861;-66
2022/05/13 07:52:05;;;;;;;7.10;0.93;;;;;;;21.28;27.50;99972.16;4309549;28;20262;-66
2022/05/13 07:54:31;;;;;;;5.33;0.80;;;;;;;21.41;27.71;99972.03;4266862;28;21198;-74
2022/05/13 07:56:58;;;;;;;3.53;1.00;;;;;;;21.46;27.45;99983.00;4305952;28;20235;-72
2022/05/13 07:59:26;;;;;;;4.87;0.93;;;;;;;21.35;28.31;99975.63;4246153;28;20310;-68
2022/05/13 08:01:53;;;;;;;3.10;1.00;;;;;;;21.54;28.43;99983.75;4247752;28;22752;-67
2022/05/13 08:04:21;;;;;;;8.77;1.23;;;;;;;21.32;28.88;99984.19;4276213;28;20250;-64
2022/05/13 08:06:47;;;;;;;3.87;1.00;;;;;;;21.12;28.88;99987.16;4239348;28;20735;-66
2022/05/13 08:09:14;;;;;;;5.53;1.17;;;;;;;20.96;29.69;99987.75;4264701;28;20233;-69
2022/05/13 08:11:41;;;;;;;5.97;1.40;;;;;;;20.75;29.65;99980.88;4235708;28;21338;-67
2022/05/13 08:14:07;;;;;;;4.57;1.33;;;;;;;21.12;29.21;99983.59;4242557;28;22896;-66
2022/05/13 08:16:35;;;;;;;2.93;0.87;;;;;;;21.17;28.49;99979.19;4240885;28;20234;-68
2022/05/13 08:19:03;;;;;;;5.90;1.10;;;;;;;21.12;28.77;99973.63;4246473;28;21179;-66
2022/05/13 08:21:29;;;;;;;4.27;1.07;;;;;;;21.01;29.68;99975.19;4241293;28;20230;-65
2022/05/13 08:23:59;;;;;;;3.03;0.90;;;;;;;21.10;29.04;99978.44;4268602;28;25140;-66
2022/05/13 08:26:26;;;;;;;3.87;1.00;;;;;;;21.02;28.72;99963.31;4275953;28;20248;-69
2022/05/13 08:28:52;;;;;;;2.60;1.00;;;;;;;21.11;29.67;99965.72;4262014;28;20841;-65
2022/05/13 08:31:19;;;;;;;6.97;1.10;;;;;;;21.22;28.68;99964.97;4227011;28;20228;-64
2022/05/13 08:33:46;;;;;;;5.67;1.07;;;;;;;20.68;29.88;99950.38;4234422;28;21845;-68
2022/05/13 08:36:14;;;;;;;6.23;1.30;;;;;;;20.69;29.70;99952.84;4265371;28;20239;-68
2022/05/13 08:38:42;;;;;;;3.83;0.93;;;;;;;20.78;28.99;99953.38;4254031;28;20222;-66
2022/05/13 08:41:09;;;;;;;7.20;1.10;;;;;;;20.54;29.55;99955.88;4257212;28;20308;-67
2022/05/13 08:43:51;;;;;;;4.87;0.90;;;;;;;20.42;29.83;99949.53;4239441;28;20245;-67
2022/05/13 08:46:27;;;;;;;6.27;1.10;;;;;;;20.29;30.72;99955.06;4257645;28;21329;-65
2022/05/13 08:48:57;;;;;;;2.43;0.97;;;;;;;20.61;29.64;99945.03;4263023;28;20241;-69
2022/05/13 08:51:30;;;;;;;6.00;1.07;;;;;;;21.08;30.10;99951.59;4243913;28;20235;-65
2022/05/13 08:54:18;;;;;;;3.27;1.07;;;;;;;20.60;28.70;99941.50;4244510;28;20494;-66
2022/05/13 08:56:48;;;;;;;5.17;0.97;;;;;;;20.60;30.37;99935.25;4266552;28;22504;-66
2022/05/13 08:59:17;;;;;;;3.67;1.03;;;;;;;20.49;30.23;99928.69;4224484;28;20283;-65
2022/05/13 09:01:54;;;;;;;6.10;1.00;;;;;;;20.44;29.99;99932.06;4244210;28;20354;-65
2022/05/13 09:04:33;;;;;;;5.60;1.03;;;;;;;20.56;29.42;99936.75;4259769;28;23134;-63
2022/05/13 09:07:03;;;;;;;5.07;1.17;;;;;;;20.55;30.05;99944.00;4243091;28;20281;-64
2022/05/13 09:09:31;;;;;;;8.23;0.90;;;;;;;20.85;29.37;99935.19;4245053;28;22317;-64
2022/05/13 09:12:18;;;;;;;7.50;1.20;;;;;;;21.01;28.16;99940.03;4236492;28;20300;-65
2022/05/13 09:14:46;;;;;;;9.17;1.07;;;;;;;21.05;28.03;99938.53;4231491;28;20339;-66
2022/05/13 09:17:30;;;;;;;7.30;0.77;;;;;;;20.03;28.61;99936.13;4266207;28;20288;-66
2022/05/13 09:20:02;;;;;;;3.13;0.80;;;;;;;19.83;29.22;99924.66;4243682;28;22254;-65
2022/05/13 09:22:38;;;;;;;5.43;0.97;;;;;;;20.14;29.68;99921.09;4245108;28;20305;-68
2022/05/13 09:25:05;;;;;;;5.77;0.93;;;;;;;20.37;29.59;99919.63;4251150;28;20382;-65
2022/05/13 09:27:50;;;;;;;2.87;0.80;;;;;;;20.84;29.21;99909.22;4227865;28;20269;-66
2022/05/13 09:30:19;;;;;;;5.17;1.00;;;;;;;21.01;28.96;99910.25;4256305;28;20228;-66
2022/05/13 09:32:46;;;;;;;2.70;0.77;;;;;;;20.77;28.45;99905.78;4258392;28;20234;-65
2022/05/13 09:35:16;;;;;;;4.03;0.97;;;;;;;20.55;29.32;99905.31;4266957;28;20861;-66
2022/05/13 09:37:44;;;;;;;2.60;0.77;;;;;;;20.62;29.43;99904.22;4261130;28;22115;-64
2022/05/13 09:40:20;;;;;;;3.03;1.00;;;;;;;20.42;29.22;99898.19;4268518;28;20242;-66
2022/05/13 09:42:50;;;;;;;5.00;1.00;;;;;;;20.04;29.30;99893.72;4257479;28;20241;-68
2022/05/13 09:45:19;;;;;;;3.03;0.80;;;;;;;20.55;29.73;99884.53;4233517;28;20238;-66
2022/05/13 09:48:05;;;;;;;2.43;0.70;;;;;;;20.84;29.05;99887.59;4235858;28;20335;-65
2022/05/13 09:50:49;;;;;;;4.00;1.07;;;;;;;20.79;28.67;99884.72;4259982;28;20568;-65
2022/05/13 09:53:22;;;;;;;4.90;0.90;;;;;;;21.03;27.67;99881.09;4232499;28;20595;-64
2022/05/13 09:55:51;;;;;;;2.13;0.80;;;;;;;20.85;27.45;99873.00;4246594;28;20515;-63
2022/05/13 09:58:26;;;;;;;4.00;0.60;;;;;;;20.78;27.52;99867.66;4238407;28;20536;-64
2022/05/13 10:01:09;;;;;;;5.00;1.20;;;;;;;20.92;28.51;99862.09;4250883;28;20250;-64
2022/05/13 10:03:38;;;;;;;4.80;0.90;;;;;;;20.50;27.09;99862.75;4247613;28;20226;-65
2022/05/13 10:06:08;;;;;;;4.30;0.80;;;;;;;20.39;27.38;99860.78;4235013;28;20237;-65
2022/05/13 10:08:48;;;;;;;3.50;1.00;;;;;;;20.19;28.39;99852.88;4245146;28;20664;-67
2022/05/13 10:14:08;;;;;;;7.07;1.00;;;;;;;20.37;27.46;99844.81;4272282;28;20242;-66
2022/05/13 10:16:41;;;;;;;6.83;1.20;;;;;;;20.20;27.88;99844.53;4242780;28;21821;-64
2022/05/13 10:19:17;;;;;;;3.50;0.60;;;;;;;20.30;27.99;99837.78;4251833;28;20388;-63
2022/05/13 10:21:47;;;;;;;5.53;0.90;;;;;;;20.65;27.91;99847.03;4263273;28;20326;-64
2022/05/13 10:24:27;;;;;;;2.70;1.00;;;;;;;20.94;27.12;99855.41;4247301;28;20426;-68
2022/05/13 10:26:54;;;;;;;5.60;1.30;;;;;;;21.07;26.82;99839.03;4241033;28;20305;-66
2022/05/13 10:29:37;;;;;;;2.63;1.00;;;;;;;20.99;27.44;99844.72;4261562;28;20849;-66
2022/05/13 10:32:12;;;;;;;7.17;1.10;;;;;;;21.12;26.52;99851.00;4246315;28;20237;-68
2022/05/13 10:34:48;;;;;;;4.40;1.17;;;;;;;21.05;26.95;99841.13;4266251;28;20992;-67
2022/05/13 10:37:17;;;;;;;4.97;1.00;;;;;;;21.30;26.55;99842.84;4246847;28;20268;-67
2022/05/13 10:39:53;;;;;;;3.80;1.00;;;;;;;21.48;26.69;99844.72;4245337;28;20246;-66
2022/05/13 10:42:40;;;;;;;6.90;0.97;;;;;;;21.41;26.67;99827.75;4253610;28;20234;-67
2022/05/13 10:45:15;;;;;;;5.17;1.00;;;;;;;21.01;26.57;99834.50;4253775;28;21312;-67
2022/05/13 10:48:15;;;;;;;8.97;1.57;;;;;;;20.94;27.14;99830.25;4278261;28;22893;-71
2022/05/13 10:51:12;;;;;;;10.63;1.30;;;;;;;20.90;27.29;99826.34;4270265;28;25331;-68
2022/05/13 10:53:57;;;;;;;4.30;0.90;;;;;;;20.98;26.56;99826.88;4271893;28;23095;-68
2022/05/13 10:56:32;;;;;;;6.43;1.43;;;;;;;21.35;27.07;99821.34;4259187;28;21737;-71
2022/05/13 10:59:34;;;;;;;3.27;0.97;;;;;;;21.07;27.36;99816.53;4280417;28;22302;-70
2022/05/13 11:02:05;;;;;;;3.37;0.83;;;;;;;21.19;27.79;99824.69;4277252;28;20242;-73
2022/05/13 11:04:40;;;;;;;5.17;1.23;;;;;;;21.13;27.88;99817.50;4257914;28;20234;-70
2022/05/13 11:07:17;;;;;;;7.53;1.17;;;;;;;20.69;27.66;99811.41;4262451;28;20238;-70
2022/05/13 11:09:59;;;;;;;4.93;1.20;;;;;;;21.17;28.07;99805.19;4266200;28;20513;-71
2022/05/13 11:12:48;;;;;;;7.20;1.77;;;;;;;21.48;26.68;99818.47;4247846;28;21529;-69
2022/05/13 11:15:18;;;;;;;8.30;1.30;;;;;;;21.72;26.30;99799.56;4291118;28;20317;-71
2022/05/13 11:18:05;;;;;;;5.97;1.13;;;;;;;21.74;27.12;99812.88;4259049;28;20286;-69
2022/05/13 11:20:46;;;;;;;6.80;1.20;;;;;;;21.68;26.00;99807.34;4287917;28;20293;-70
2022/05/13 11:23:16;;;;;;;5.00;1.70;;;;;;;21.66;26.10;99803.22;4269755;28;25636;-71
2022/05/13 11:26:05;;;;;;;4.07;1.00;;;;;;;21.77;26.73;99791.53;4309315;28;20801;-72
2022/05/13 11:28:56;;;;;;;5.33;1.40;;;;;;;21.62;26.43;99796.59;4253970;28;20376;-71
2022/05/13 11:31:50;;;;;;;5.07;1.37;;;;;;;21.59;27.61;99794.38;4269046;28;20307;-73
2022/05/13 11:34:44;;;;;;;8.23;1.20;;;;;;;21.38;27.59;99807.34;4288602;28;20361;-71
2022/05/13 11:37:12;;;;;;;2.47;1.13;;;;;;;21.20;27.64;99805.53;4284005;28;22039;-69
2022/05/13 11:39:56;;;;;;;5.43;1.53;;;;;;;21.28;27.98;99790.84;4274472;28;20237;-71
2022/05/13 11:45:49;;;;;;;6.17;1.40;;;;;;;21.75;27.65;99785.56;4238432;28;21603;-70
2022/05/13 11:48:27;;;;;;;6.57;1.37;;;;;;;22.00;26.98;99787.22;4254169;28;20224;-71
2022/05/13 11:51:11;;;;;;;5.43;1.40;;;;;;;21.53;27.38;99782.56;4253341;28;20407;-70
2022/05/13 11:53:40;;;;;;;4.00;1.00;;;;;;;21.44;28.19;99776.66;4230245;28;20309;-69
2022/05/13 11:56:25;;;;;;;4.50;1.13;;;;;;;21.68;27.35;99779.41;4243432;28;21556;-72
2022/05/13 11:59:02;;;;;;;4.60;1.37;;;;;;;21.73;27.28;99774.13;4286977;28;20243;-69
2022/05/13 12:01:38;;;;;;;10.03;1.43;;;;;;;21.47;28.31;99773.50;4247399;28;20228;-69
2022/05/13 12:04:14;;;;;;;3.83;1.40;;;;;;;21.10;27.57;99778.22;4272390;28;25837;-67
2022/05/13 12:06:50;;;;;;;3.97;1.30;;;;;;;21.14;27.59;99765.88;4275897;28;20359;-68